Time;durP1;ratioP1;P1;durP2;ratioP2;P2;SDS_P1;SDS_P2;PMS_P1;PMS_P2;Temp;Humidity;BMP_temperature;BMP_pressure;BME280_temperature;BME280_humidity;BME280_pressure;Samples;Min_cycle;Max_cycle;Signal;HPM_P1;HPM_P2
2022/05/30 00:03:22;;;;;;;6.78;2.47;;;;;;;8.05;88.48;101432.59;10419009;28;20117;-77
2022/05/30 00:08:23;;;;;;;2.97;1.67;;;;;;;7.94;87.82;101424.81;10401873;28;20037;-76
2022/05/30 00:13:23;;;;;;;1.85;1.75;;;;;;;7.87;87.98;101415.72;10419485;28;20037;-77
2022/05/30 00:18:23;;;;;;;10.32;2.10;;;;;;;7.85;88.00;101418.59;10418994;28;20037;-76
2022/05/30 00:23:24;;;;;;;6.47;2.88;;;;;;;7.87;88.95;101410.31;10418453;28;20124;-77
2022/05/30 00:28:25;;;;;;;3.35;2.08;;;;;;;8.03;90.01;101413.03;10416897;28;20117;-77
2022/05/30 00:33:25;;;;;;;16.73;3.88;;;;;;;8.31;90.95;101410.00;10417093;28;20038;-77
2022/05/30 00:38:26;;;;;;;10.93;3.00;;;;;;;8.58;90.88;101409.66;10417113;28;20084;-77
2022/05/30 00:43:32;;;;;;;12.23;3.53;;;;;;;8.81;91.10;101408.94;10417580;28;20037;-76
2022/05/30 00:48:34;;;;;;;3.00;2.13;;;;;;;9.01;91.37;101404.78;10418337;28;20032;-77
2022/05/30 00:53:35;;;;;;;7.10;2.58;;;;;;;9.13;91.30;101407.13;10415852;28;20017;-77
2022/05/30 00:58:37;;;;;;;5.15;2.13;;;;;;;9.23;91.64;101394.22;10398619;28;20033;-77
2022/05/30 01:08:57;;;;;;;3.03;2.08;;;;;;;9.41;91.99;101399.34;10416083;28;20037;-77
2022/05/30 01:13:58;;;;;;;6.07;2.60;;;;;;;9.48;91.82;101395.78;10414568;28;20029;-77
2022/05/30 01:19:01;;;;;;;4.80;2.38;;;;;;;9.53;91.72;101398.78;10416421;28;20044;-77
2022/05/30 01:24:13;;;;;;;5.45;2.75;;;;;;;9.56;91.53;101389.47;10398932;28;20030;-77
2022/05/30 01:29:26;;;;;;;9.93;2.20;;;;;;;9.61;91.58;101392.50;10415438;28;20072;-77
2022/05/30 01:34:27;;;;;;;5.18;2.08;;;;;;;9.67;91.88;101385.53;10398768;28;20061;-77
2022/05/30 01:39:27;;;;;;;7.03;2.88;;;;;;;9.67;91.41;101372.84;10416248;28;20046;-77
2022/05/30 01:44:28;;;;;;;4.43;2.83;;;;;;;9.71;91.98;101384.13;10416274;28;20471;-77
2022/05/30 01:49:28;;;;;;;7.82;2.95;;;;;;;9.70;91.98;101371.63;10415795;28;20056;-77
2022/05/30 01:54:28;;;;;;;3.88;2.00;;;;;;;9.71;91.69;101371.47;10416481;28;20033;-77
2022/05/30 01:59:29;;;;;;;5.35;1.70;;;;;;;9.75;91.28;101371.94;10398279;28;20091;-77
2022/05/30 02:04:29;;;;;;;5.53;1.90;;;;;;;9.78;91.76;101364.28;10415250;28;20029;-77
2022/05/30 02:09:30;;;;;;;2.80;1.65;;;;;;;9.87;91.49;101365.06;10419903;28;20500;-77
2022/05/30 02:14:30;;;;;;;2.53;1.70;;;;;;;9.92;91.23;101368.09;10404975;28;20150;-77
2022/05/30 02:19:32;;;;;;;3.25;2.28;;;;;;;9.93;91.37;101369.78;10421937;28;20045;-77
2022/05/30 02:24:33;;;;;;;4.75;1.35;;;;;;;9.93;91.93;101368.94;10422840;28;20049;-77
2022/05/30 02:29:33;;;;;;;1.35;1.23;;;;;;;9.93;91.58;101358.94;10405799;28;20354;-77
2022/05/30 02:39:52;;;;;;;6.70;1.63;;;;;;;9.89;90.86;101352.22;10413416;28;20049;-78
2022/05/30 02:44:53;;;;;;;1.73;1.63;;;;;;;9.84;90.82;101353.78;10426098;28;20037;-78
2022/05/30 02:49:53;;;;;;;1.55;1.45;;;;;;;9.67;91.05;101347.66;10427095;28;20124;-78
2022/05/30 02:54:53;;;;;;;2.95;1.70;;;;;;;9.52;90.69;101355.72;10425287;28;20033;-78
2022/05/30 02:59:54;;;;;;;4.75;1.73;;;;;;;9.49;91.03;101354.19;10447778;28;20037;-78
2022/05/30 03:04:54;;;;;;;10.80;3.10;;;;;;;9.36;91.59;101359.34;10459418;28;20032;-79
2022/05/30 03:09:55;;;;;;;10.50;2.33;;;;;;;9.26;92.11;101358.75;10416544;28;20509;-78
2022/05/30 03:14:55;;;;;;;4.55;2.08;;;;;;;9.31;92.31;101361.75;10427260;28;20119;-79
2022/05/30 03:19:56;;;;;;;5.18;1.77;;;;;;;9.31;91.23;101345.53;10410748;28;20072;-78
2022/05/30 03:24:56;;;;;;;5.50;2.20;;;;;;;9.24;91.01;101358.06;10426892;28;20037;-78
2022/05/30 03:29:56;;;;;;;4.45;1.80;;;;;;;9.18;90.38;101356.06;10429333;28;20037;-78
2022/05/30 03:34:57;;;;;;;2.17;1.98;;;;;;;9.12;90.67;101354.91;10409511;28;20029;-78
2022/05/30 03:39:57;;;;;;;1.52;1.42;;;;;;;9.03;90.11;101359.53;10406554;28;20145;-78
2022/05/30 03:44:58;;;;;;;4.53;2.20;;;;;;;8.82;90.62;101362.00;10420342;28;20037;-78
2022/05/30 03:49:59;;;;;;;18.88;2.67;;;;;;;8.67;90.45;101366.44;10421840;28;20072;-78
2022/05/30 03:55:03;;;;;;;5.75;2.00;;;;;;;8.72;90.77;101361.34;10389666;28;20121;-78
2022/05/30 04:00:04;;;;;;;2.17;2.08;;;;;;;8.76;90.55;101370.78;10404722;28;20029;-78
2022/05/30 04:05:05;;;;;;;13.18;3.15;;;;;;;8.72;90.36;101356.78;10422671;28;20053;-79
2022/05/30 04:10:06;;;;;;;7.72;2.70;;;;;;;8.80;91.51;101355.91;10420964;28;20450;-79
2022/05/30 04:15:08;;;;;;;5.88;2.38;;;;;;;8.88;90.94;101357.75;10421242;28;20061;-79
2022/05/30 04:20:09;;;;;;;3.30;3.00;;;;;;;8.93;91.72;101352.66;10405869;28;20064;-78
2022/05/30 04:25:09;;;;;;;7.70;2.28;;;;;;;8.94;91.42;101344.38;10423432;28;20037;-79
2022/05/30 04:30:10;;;;;;;2.72;2.20;;;;;;;8.92;90.92;101354.50;10403893;28;20448;-78
2022/05/30 04:35:11;;;;;;;8.88;2.45;;;;;;;8.84;90.88;101343.75;10419190;28;20040;-74
2022/05/30 04:40:13;;;;;;;9.20;2.17;;;;;;;8.81;91.11;101347.66;10417463;28;20053;-75
2022/05/30 04:45:14;;;;;;;3.50;2.45;;;;;;;9.41;91.34;101343.47;10417845;28;20038;-75
2022/05/30 04:50:16;;;;;;;8.70;2.55;;;;;;;10.75;91.15;101343.75;10401048;28;20396;-75
2022/05/30 04:55:18;;;;;;;10.07;3.47;;;;;;;11.85;90.20;101349.00;10399703;28;20465;-75
2022/05/30 05:00:20;;;;;;;10.43;2.58;;;;;;;12.12;90.17;101336.47;10417143;28;20052;-77
2022/05/30 05:05:21;;;;;;;2.47;1.85;;;;;;;11.66;88.88;101344.19;10401186;28;20425;-76
2022/05/30 05:11:01;;;;;;;2.20;1.95;;;;;;;11.95;88.56;101352.22;10416940;28;20037;-76
2022/05/30 05:16:01;;;;;;;4.40;1.33;;;;;;;12.95;90.01;101353.69;10401671;28;20038;-76
2022/05/30 05:21:02;;;;;;;10.18;2.05;;;;;;;14.00;88.04;101348.75;10417841;28;20091;-75
2022/05/30 05:26:06;;;;;;;5.47;2.17;;;;;;;14.93;87.53;101355.97;10399381;28;20116;-75
2022/05/30 05:31:07;;;;;;;3.38;2.10;;;;;;;15.47;86.69;101343.75;10415589;28;20061;-76
2022/05/30 05:36:08;;;;;;;5.35;2.10;;;;;;;16.05;85.92;101351.81;10414372;28;20037;-76
2022/05/30 05:41:08;;;;;;;7.13;1.90;;;;;;;16.59;85.26;101347.53;10415358;28;20046;-76
2022/05/30 05:46:19;;;;;;;3.08;1.67;;;;;;;17.20;84.47;101345.78;10415192;28;20124;-76
2022/05/30 05:51:21;;;;;;;9.45;1.70;;;;;;;17.71;83.92;101351.78;10405811;28;20030;-76
2022/05/30 05:56:24;;;;;;;5.45;1.70;;;;;;;18.01;83.81;101355.34;10405354;28;20080;-76
2022/05/30 06:01:26;;;;;;;0.90;0.90;;;;;;;18.32;83.47;101367.91;10416990;28;20029;-76
2022/05/30 06:06:26;;;;;;;4.75;2.50;;;;;;;18.18;83.89;101363.69;10416303;28;20041;-76
2022/05/30 06:11:28;;;;;;;2.17;1.45;;;;;;;19.11;82.31;101353.72;10399055;28;20136;-76
2022/05/30 06:16:36;;;;;;;1.20;1.10;;;;;;;19.42;77.98;101357.09;10415090;28;20037;-77
2022/05/30 06:21:38;;;;;;;2.05;1.50;;;;;;;17.10;79.68;101367.34;10405159;28;20048;-77
2022/05/30 06:26:38;;;;;;;4.75;1.67;;;;;;;15.31;80.15;101365.03;10417678;28;20057;-76
2022/05/30 06:31:40;;;;;;;1.05;1.02;;;;;;;14.29;82.00;101371.19;10418274;28;20038;-77
2022/05/30 06:36:40;;;;;;;5.82;1.85;;;;;;;13.54;82.72;101374.06;10403669;28;20439;-76
2022/05/30 06:41:41;;;;;;;6.32;1.50;;;;;;;13.11;82.56;101368.00;10398984;28;20079;-76
2022/05/30 06:46:41;;;;;;;1.52;1.30;;;;;;;12.78;82.66;101374.94;10397998;28;20033;-76
2022/05/30 06:51:43;;;;;;;1.15;0.85;;;;;;;12.59;83.05;101372.13;10415529;28;20389;-76
2022/05/30 07:02:04;;;;;;;1.08;1.08;;;;;;;12.85;81.67;101390.47;10420162;28;20485;-76
2022/05/30 07:07:05;;;;;;;1.13;1.08;;;;;;;13.08;81.33;101377.44;10421998;28;20520;-76
2022/05/30 07:12:08;;;;;;;5.10;1.27;;;;;;;13.31;81.50;101382.56;10403975;28;20040;-76
2022/05/30 07:17:12;;;;;;;3.55;0.95;;;;;;;13.47;80.99;101387.63;10403933;28;20451;-76
2022/05/30 07:22:12;;;;;;;4.55;1.58;;;;;;;13.70;80.29;101386.44;10420550;28;20445;-76
2022/05/30 07:27:12;;;;;;;5.40;1.20;;;;;;;13.97;79.96;101376.41;10402808;28;20029;-76
2022/05/30 07:32:13;;;;;;;2.42;1.45;;;;;;;14.44;79.07;101385.41;10420754;28;20076;-76
2022/05/30 07:37:13;;;;;;;3.30;1.63;;;;;;;15.77;76.97;101374.06;10419946;28;20140;-76
2022/05/30 07:42:14;;;;;;;2.15;1.52;;;;;;;18.48;73.07;101371.84;10420978;28;20034;-76
2022/05/30 07:47:17;;;;;;;1.40;1.30;;;;;;;19.81;67.92;101371.03;10403056;28;20120;-77
2022/05/30 07:52:17;;;;;;;0.85;0.85;;;;;;;21.33;67.16;101366.97;10386259;28;20043;-76
2022/05/30 07:57:17;;;;;;;8.60;1.45;;;;;;;20.71;67.97;101366.44;10385527;28;20040;-77
2022/05/30 08:02:18;;;;;;;1.95;1.50;;;;;;;18.67;66.04;101368.97;10401829;28;20124;-77
2022/05/30 08:07:18;;;;;;;1.15;1.10;;;;;;;17.48;63.16;101374.44;10419746;28;20500;-77
2022/05/30 08:12:19;;;;;;;1.20;1.05;;;;;;;16.95;62.94;101362.28;10417926;28;20045;-76
2022/05/30 08:17:20;;;;;;;2.67;1.88;;;;;;;16.68;64.69;101376.22;10419600;28;20038;-76
2022/05/30 08:22:22;;;;;;;2.42;1.23;;;;;;;16.55;61.05;101370.06;10417525;28;20037;-76
2022/05/30 08:27:22;;;;;;;1.13;1.05;;;;;;;17.10;65.29;101376.44;10402288;28;20033;-77
2022/05/30 08:32:23;;;;;;;1.92;1.17;;;;;;;17.13;66.15;101383.31;10400713;28;20111;-77
2022/05/30 08:37:25;;;;;;;4.53;1.92;;;;;;;17.08;67.30;101389.50;10417515;28;20062;-77
2022/05/30 08:57:40;;;;;;;1.45;1.35;;;;;;;20.45;54.84;101385.28;10714138;27;1239090;-78
2022/05/30 09:02:48;;;;;;;1.10;0.80;;;;;;;18.85;57.67;101388.03;10686869;27;20041;-78
2022/05/30 09:07:50;;;;;;;1.10;1.00;;;;;;;17.27;59.10;101395.78;10691434;27;20027;-78
2022/05/30 09:13:05;;;;;;;1.35;1.08;;;;;;;16.49;62.89;101391.75;10691560;27;20082;-78
2022/05/30 09:18:06;;;;;;;1.00;1.00;;;;;;;15.88;62.52;101405.28;10686890;27;20031;-78
2022/05/30 09:23:07;;;;;;;3.50;1.23;;;;;;;15.36;63.00;101402.63;10685405;27;20023;-78
2022/05/30 09:28:08;;;;;;;0.98;0.98;;;;;;;15.05;64.04;101406.09;10668243;27;20125;-78
2022/05/30 09:33:20;;;;;;;2.20;1.17;;;;;;;14.98;64.17;101410.72;10684856;27;20094;-78
2022/05/30 09:38:21;;;;;;;1.08;0.98;;;;;;;14.87;64.52;101404.88;10705530;27;20488;-77
2022/05/30 09:43:27;;;;;;;1.52;1.42;;;;;;;14.92;64.59;101406.13;10686012;27;20375;-77
2022/05/30 09:48:29;;;;;;;6.13;1.65;;;;;;;14.95;63.47;101412.00;10686200;27;20034;-77
2022/05/30 09:53:43;;;;;;;0.73;0.73;;;;;;;15.08;63.89;101403.75;10667896;27;20110;-78
2022/05/30 09:58:49;;;;;;;1.08;1.02;;;;;;;15.18;63.85;101406.03;10655880;27;20039;-78
2022/05/30 10:03:52;;;;;;;0.93;0.93;;;;;;;15.27;63.96;101410.19;10655102;27;20039;-78
2022/05/30 10:09:18;;;;;;;1.98;0.80;;;;;;;15.46;64.22;101402.97;10672430;27;20027;-78
2022/05/30 10:14:23;;;;;;;0.93;0.82;;;;;;;15.49;63.97;101402.53;10671814;27;20023;-78
2022/05/30 10:19:31;;;;;;;1.00;1.00;;;;;;;15.39;64.97;101410.38;10637279;27;20079;-77
2022/05/30 10:30:10;;;;;;;5.28;0.93;;;;;;;15.27;65.56;101423.84;10671755;27;20031;-78
2022/05/30 10:35:41;;;;;;;0.93;0.70;;;;;;;15.30;64.57;101425.31;10671373;27;20023;-77
2022/05/30 10:40:54;;;;;;;1.13;1.08;;;;;;;15.32;63.10;101431.41;10671553;27;20030;-77
2022/05/30 10:46:02;;;;;;;0.80;0.80;;;;;;;15.04;59.62;101428.97;10636362;27;20023;-78
2022/05/30 10:51:11;;;;;;;2.35;0.98;;;;;;;14.79;63.45;101437.00;10635390;27;20038;-78
2022/05/30 10:56:28;;;;;;;2.92;0.93;;;;;;;14.99;63.79;101437.78;10652463;27;20042;-77
2022/05/30 11:01:49;;;;;;;5.93;1.27;;;;;;;14.82;63.54;101437.41;10653490;27;20034;-77
2022/05/30 11:06:50;;;;;;;3.70;1.38;;;;;;;14.68;64.32;101440.34;10654498;27;20027;-77
2022/05/30 11:12:06;;;;;;;1.63;1.27;;;;;;;14.75;64.74;101439.31;10681282;27;20031;-77
2022/05/30 11:17:25;;;;;;;4.32;1.25;;;;;;;14.96;61.18;101426.47;10685413;27;20058;-77
2022/05/30 11:22:26;;;;;;;1.88;1.33;;;;;;;15.89;61.56;101429.66;10676763;27;20019;-77
2022/05/30 11:27:45;;;;;;;1.67;1.20;;;;;;;19.65;56.65;101424.88;10670505;27;20034;-77
2022/05/30 11:33:01;;;;;;;1.77;1.40;;;;;;;21.75;53.35;101413.19;10669950;27;20034;-78
2022/05/30 11:38:16;;;;;;;1.40;1.30;;;;;;;21.09;55.22;101409.63;10634208;27;20058;-78
2022/05/30 11:43:35;;;;;;;0.70;0.70;;;;;;;19.67;60.01;101415.31;10669263;27;20110;-78
2022/05/30 11:48:52;;;;;;;5.22;1.35;;;;;;;18.87;60.79;101423.50;10650851;27;20068;-78
2022/05/30 11:54:43;;;;;;;1.98;1.65;;;;;;;18.30;57.92;101413.91;10650903;27;20501;-78
2022/05/30 11:59:52;;;;;;;0.88;0.88;;;;;;;18.47;59.48;101425.00;10612310;27;20045;-77
2022/05/30 12:05:14;;;;;;;2.25;1.55;;;;;;;18.15;59.28;101419.00;10675853;27;20076;-77
2022/05/30 12:10:52;;;;;;;2.28;1.40;;;;;;;17.45;58.14;101416.81;10669072;27;20037;-77
2022/05/30 12:16:02;;;;;;;;;;;;;;;17.28;60.01;101422.09;10649571;27;20035;-78
2022/05/30 12:26:46;;;;;;;3.47;0.88;;;;;;;17.12;59.00;101417.22;10667542;27;20461;-77
2022/05/30 12:31:46;;;;;;;1.38;1.38;;;;;;;17.11;60.71;101423.78;10648794;27;20037;-78
2022/05/30 12:36:47;;;;;;;1.20;1.08;;;;;;;17.18;60.97;101416.31;10614953;27;20469;-78
2022/05/30 12:41:58;;;;;;;2.50;1.75;;;;;;;17.15;60.13;101420.34;10632080;27;20167;-78
2022/05/30 12:47:08;;;;;;;1.20;1.15;;;;;;;17.27;57.48;101416.84;10614443;27;20050;-78
2022/05/30 12:52:21;;;;;;;1.52;1.42;;;;;;;17.19;59.05;101412.50;10631049;27;20042;-78
2022/05/30 12:57:39;;;;;;;11.18;2.25;;;;;;;17.08;56.64;101405.06;10622446;28;20063;-77
2022/05/30 13:02:54;;;;;;;8.75;2.42;;;;;;;16.90;53.90;101409.47;10624107;27;20031;-78
2022/05/30 13:07:55;;;;;;;2.67;2.47;;;;;;;16.98;57.94;101413.00;10622469;28;20513;-77
2022/05/30 13:13:06;;;;;;;5.70;1.75;;;;;;;17.03;57.91;101408.47;10621878;28;20125;-78
2022/05/30 13:18:18;;;;;;;1.98;1.77;;;;;;;16.89;58.17;101407.81;10622516;28;20096;-78
2022/05/30 13:23:37;;;;;;;2.67;1.77;;;;;;;16.68;58.35;101411.75;10622121;28;20409;-78
2022/05/30 13:28:41;;;;;;;2.17;1.85;;;;;;;16.34;58.31;101410.41;10605946;27;20463;-77
2022/05/30 13:33:47;;;;;;;1.38;1.08;;;;;;;15.79;57.55;101410.16;10629402;27;20035;-77
2022/05/30 13:38:49;;;;;;;10.10;1.73;;;;;;;15.58;58.39;101406.69;10630635;27;20070;-77
2022/05/30 13:43:51;;;;;;;1.52;1.40;;;;;;;15.69;57.82;101415.28;10628970;27;20030;-77
2022/05/30 13:48:52;;;;;;;2.53;1.83;;;;;;;15.59;59.15;101415.72;10630517;27;20038;-77
2022/05/30 13:53:53;;;;;;;2.05;1.83;;;;;;;15.19;55.84;101412.31;10613137;27;20084;-77
2022/05/30 13:58:58;;;;;;;2.65;1.60;;;;;;;15.40;57.67;101413.94;10672325;27;20138;-77
2022/05/30 14:04:02;;;;;;;2.10;1.33;;;;;;;15.57;57.86;101406.91;10637822;27;20026;-77
2022/05/30 14:09:04;;;;;;;5.65;1.83;;;;;;;15.47;55.07;101404.63;10637941;27;20409;-78
2022/05/30 14:14:05;;;;;;;4.10;1.30;;;;;;;15.42;58.34;101404.47;10636295;27;20053;-78
2022/05/30 14:19:10;;;;;;;3.58;1.38;;;;;;;15.29;56.97;101399.09;10653973;27;20035;-77
2022/05/30 14:24:32;;;;;;;7.43;2.05;;;;;;;15.51;57.90;101407.81;10654268;27;20026;-77
2022/05/30 14:29:38;;;;;;;5.70;1.58;;;;;;;15.54;57.77;101408.19;10638006;27;20052;-77
2022/05/30 14:34:42;;;;;;;1.50;1.40;;;;;;;15.69;58.85;101402.47;10636452;27;20031;-77
2022/05/30 14:39:49;;;;;;;2.65;2.03;;;;;;;15.74;59.20;101399.91;10636632;27;20266;-77
2022/05/30 14:44:53;;;;;;;;;;;;;;;15.87;58.54;101407.19;10671373;27;20027;-77
2022/05/30 14:50:13;;;;;;;8.88;2.28;;;;;;;15.87;59.14;101409.09;10657369;27;20012;-77
2022/05/30 14:55:35;;;;;;;10.45;2.17;;;;;;;15.91;59.31;101410.31;10621152;27;20062;-77
2022/05/30 15:00:53;;;;;;;1.27;1.17;;;;;;;15.96;59.43;101407.78;10637289;27;20455;-77
2022/05/30 15:05:56;;;;;;;0.90;0.82;;;;;;;15.96;59.98;101405.88;10670290;27;20038;-77
2022/05/30 15:10:56;;;;;;;4.90;1.50;;;;;;;16.07;59.70;101398.00;10635073;27;20062;-77
2022/05/30 15:15:57;;;;;;;1.85;1.70;;;;;;;15.87;58.95;101396.25;10633955;27;20050;-77
2022/05/30 15:20:57;;;;;;;5.38;2.15;;;;;;;15.86;59.33;101400.06;10679416;27;20402;-77
2022/05/30 15:25:57;;;;;;;2.72;1.58;;;;;;;16.11;59.70;101394.59;10631764;27;20056;-77
2022/05/30 15:30:58;;;;;;;2.75;1.75;;;;;;;16.30;59.72;101389.19;10683233;27;20054;-77
2022/05/30 15:35:59;;;;;;;1.05;1.05;;;;;;;16.30;59.61;101392.78;10670288;27;20039;-77
2022/05/30 15:40:59;;;;;;;1.40;1.30;;;;;;;16.38;60.02;101395.22;10650866;27;20026;-77
2022/05/30 15:46:00;;;;;;;4.70;2.15;;;;;;;16.30;59.89;101387.31;10650933;27;20081;-77
2022/05/30 15:51:00;;;;;;;1.58;1.27;;;;;;;16.19;57.92;101396.25;10633071;27;20058;-77
2022/05/30 16:01:20;;;;;;;3.92;1.95;;;;;;;16.17;59.40;101387.41;10653048;27;20046;-77
2022/05/30 16:06:20;;;;;;;6.50;2.15;;;;;;;16.22;59.79;101382.97;10649328;27;20035;-77
2022/05/30 16:11:21;;;;;;;6.18;1.15;;;;;;;16.16;59.79;101392.06;10615625;27;20034;-77
2022/05/30 16:16:23;;;;;;;5.10;1.70;;;;;;;16.10;60.13;101392.94;10648847;27;20019;-77
2022/05/30 16:21:24;;;;;;;1.55;1.45;;;;;;;16.14;60.30;101388.69;10649039;27;20031;-77
2022/05/30 16:26:43;;;;;;;8.18;1.10;;;;;;;16.21;59.92;101388.66;10631864;27;20031;-77
2022/05/30 16:31:44;;;;;;;1.13;1.10;;;;;;;16.20;59.49;101376.03;10648732;27;20057;-77
2022/05/30 16:36:47;;;;;;;4.32;1.17;;;;;;;16.14;58.64;101380.50;10648695;27;20055;-77
2022/05/30 16:41:48;;;;;;;4.07;0.95;;;;;;;15.88;58.06;101375.25;10631418;27;20035;-77
2022/05/30 16:46:50;;;;;;;1.88;1.58;;;;;;;15.83;57.54;101375.09;10631138;27;20030;-77
2022/05/30 16:51:50;;;;;;;5.00;1.67;;;;;;;15.87;56.76;101368.94;10648559;27;20039;-78
2022/05/30 16:56:51;;;;;;;5.97;2.03;;;;;;;15.55;57.15;101371.66;10630830;27;20079;-77
2022/05/30 17:01:52;;;;;;;3.92;1.50;;;;;;;15.56;58.19;101364.28;10630969;27;20476;-77
2022/05/30 17:06:53;;;;;;;9.77;1.63;;;;;;;15.33;57.71;101362.94;10671373;27;20031;-77
2022/05/30 17:11:55;;;;;;;4.13;1.80;;;;;;;15.14;58.26;101368.50;10656745;27;20123;-77
2022/05/30 17:16:56;;;;;;;2.65;1.63;;;;;;;15.01;59.38;101377.56;10656133;27;20070;-77
2022/05/30 17:21:56;;;;;;;2.35;1.92;;;;;;;14.57;58.44;101370.97;10656099;27;20482;-77
2022/05/30 17:32:24;;;;;;;1.10;1.00;;;;;;;14.29;59.70;101365.72;10644078;27;20039;-77
2022/05/30 17:37:25;;;;;;;8.13;1.65;;;;;;;14.36;59.43;101374.75;10624103;27;20027;-76
2022/05/30 17:42:26;;;;;;;2.63;1.88;;;;;;;14.34;58.99;101369.50;10647567;27;20069;-77
2022/05/30 17:47:31;;;;;;;2.97;1.55;;;;;;;14.31;59.43;101363.63;10642271;27;20467;-77
2022/05/30 17:52:46;;;;;;;2.88;1.65;;;;;;;14.28;59.51;101366.78;10655671;27;20122;-77
2022/05/30 17:57:47;;;;;;;6.68;2.35;;;;;;;14.17;59.30;101371.00;10638516;27;20546;-76
2022/05/30 18:02:48;;;;;;;1.88;1.58;;;;;;;14.08;59.86;101374.97;10672691;27;20080;-77
2022/05/30 18:07:54;;;;;;;2.63;1.85;;;;;;;13.92;59.69;101378.94;10654603;27;20042;-77
2022/05/30 18:13:07;;;;;;;2.78;2.38;;;;;;;13.84;59.83;101370.94;10653686;27;20046;-77
2022/05/30 18:24:04;;;;;;;3.40;1.67;;;;;;;13.60;59.94;101364.22;10656544;27;20026;-77
2022/05/30 18:29:04;;;;;;;3.28;1.95;;;;;;;13.52;60.47;101367.97;10672148;27;20035;-77
2022/05/30 18:34:30;;;;;;;6.47;1.67;;;;;;;13.42;60.17;101367.53;10653889;27;20459;-76
2022/05/30 18:39:40;;;;;;;6.82;1.92;;;;;;;13.34;60.69;101375.88;10652560;27;20432;-78
2022/05/30 18:45:05;;;;;;;4.30;2.63;;;;;;;13.20;61.44;101380.38;10652919;27;20463;-79
2022/05/30 18:50:12;;;;;;;6.07;1.95;;;;;;;13.06;60.71;101376.78;10657082;27;20060;-79
2022/05/30 18:55:14;;;;;;;1.95;1.50;;;;;;;12.92;61.20;101377.75;10609665;27;20031;-79
2022/05/30 19:00:18;;;;;;;5.45;1.85;;;;;;;12.80;61.56;101374.78;10634959;27;20117;-79
2022/05/30 19:05:18;;;;;;;3.22;1.88;;;;;;;12.69;61.65;101376.16;10651610;27;20041;-79
2022/05/30 19:10:19;;;;;;;6.57;6.13;;;;;;;12.56;61.70;101376.91;10651203;27;20068;-79
2022/05/30 19:20:41;;;;;;;4.10;1.77;;;;;;;12.35;62.31;101382.41;10639171;27;20038;-75
2022/05/30 19:25:42;;;;;;;1.10;1.10;;;;;;;12.24;62.69;101385.66;10635063;27;20027;-75
2022/05/30 19:30:42;;;;;;;9.93;2.17;;;;;;;12.19;63.62;101393.53;10603734;27;20039;-76
2022/05/30 19:35:43;;;;;;;5.72;2.67;;;;;;;12.10;63.67;101401.00;10648152;27;20037;-74
2022/05/30 19:40:44;;;;;;;3.58;2.47;;;;;;;12.02;63.89;101403.84;10660370;27;20543;-75
2022/05/30 19:45:45;;;;;;;4.50;2.03;;;;;;;11.94;63.91;101407.53;10670063;27;20482;-76
2022/05/30 19:50:45;;;;;;;4.47;2.25;;;;;;;11.84;64.36;101410.56;10652206;27;20037;-75
2022/05/30 19:55:46;;;;;;;7.05;2.58;;;;;;;11.68;64.69;101420.78;10644195;27;20094;-75
2022/05/30 20:00:46;;;;;;;5.53;2.63;;;;;;;11.53;65.11;101426.28;10667908;27;20026;-76
2022/05/30 20:05:47;;;;;;;4.50;2.42;;;;;;;11.43;65.35;101425.75;10667267;27;20031;-75
2022/05/30 20:10:47;;;;;;;5.90;3.03;;;;;;;11.38;65.76;101437.97;10648877;27;20058;-75
2022/05/30 20:15:48;;;;;;;5.20;1.30;;;;;;;11.36;66.04;101431.09;10663637;27;20030;-74
2022/05/30 20:20:48;;;;;;;8.98;2.40;;;;;;;11.33;66.49;101440.44;10631420;27;20034;-76
2022/05/30 20:25:48;;;;;;;2.70;2.17;;;;;;;11.33;67.01;101440.44;10616216;27;20174;-76
2022/05/30 20:30:49;;;;;;;1.65;1.55;;;;;;;11.31;66.02;101442.47;10591547;27;20387;-76
2022/05/30 20:35:49;;;;;;;2.08;1.58;;;;;;;11.23;66.62;101439.91;10633442;27;20395;-75
2022/05/30 20:46:09;;;;;;;1.95;1.58;;;;;;;11.05;66.99;101451.09;10624221;27;20039;-76
2022/05/30 20:51:09;;;;;;;1.80;1.70;;;;;;;10.91;67.07;101444.66;10624096;27;20118;-76
2022/05/30 20:56:09;;;;;;;2.55;1.77;;;;;;;10.77;67.14;101445.47;10605349;28;20524;-76
2022/05/30 21:01:10;;;;;;;3.38;2.17;;;;;;;10.61;67.71;101448.38;10624105;28;20035;-75
2022/05/30 21:06:11;;;;;;;3.08;2.75;;;;;;;10.55;67.54;101455.34;10605614;28;20023;-77
2022/05/30 21:11:12;;;;;;;5.55;1.75;;;;;;;10.51;68.24;101448.63;10623453;27;20037;-76
2022/05/30 21:16:38;;;;;;;5.88;2.25;;;;;;;10.52;68.29;101447.59;10604916;28;20038;-76
2022/05/30 21:21:45;;;;;;;10.20;3.55;;;;;;;10.50;68.98;101454.22;10623279;28;20034;-76
2022/05/30 21:26:46;;;;;;;;;;;;;;;10.36;68.19;101443.16;10623856;28;20027;-75
2022/05/30 21:31:52;;;;;;;3.30;2.90;;;;;;;10.29;68.68;101449.50;10623041;27;19922;-76
2022/05/30 21:36:55;;;;;;;2.35;2.08;;;;;;;10.19;69.29;101442.44;10588557;28;20027;-75
2022/05/30 21:41:55;;;;;;;3.85;1.92;;;;;;;10.08;68.89;101442.00;10605236;28;20392;-75
2022/05/30 21:46:56;;;;;;;4.43;2.75;;;;;;;10.04;69.35;101448.81;10587326;28;20042;-75
2022/05/30 21:51:56;;;;;;;11.00;3.47;;;;;;;10.02;69.95;101449.84;10625711;27;20038;-75
2022/05/30 22:02:16;;;;;;;6.65;3.03;;;;;;;9.86;70.58;101441.84;10614870;27;20031;-75
2022/05/30 22:07:16;;;;;;;3.72;1.98;;;;;;;9.77;70.71;101434.81;10631466;27;20464;-76
2022/05/30 22:12:17;;;;;;;2.88;2.38;;;;;;;9.61;71.00;101437.63;10632943;27;20066;-76
2022/05/30 22:17:17;;;;;;;3.40;2.58;;;;;;;9.47;71.27;101428.38;10614793;27;20475;-76
2022/05/30 22:22:17;;;;;;;2.35;2.05;;;;;;;9.34;71.92;101428.97;10630891;27;20031;-76
2022/05/30 22:27:18;;;;;;;9.52;3.55;;;;;;;9.26;72.34;101427.16;10610790;27;20019;-75
2022/05/30 22:32:19;;;;;;;5.60;2.90;;;;;;;9.19;72.57;101428.00;10628963;27;20526;-75
2022/05/30 22:37:19;;;;;;;8.23;2.83;;;;;;;9.17;72.81;101425.50;10628831;27;20042;-75
2022/05/30 22:42:20;;;;;;;5.82;2.80;;;;;;;9.14;73.07;101438.53;10628562;27;20031;-75
2022/05/30 22:47:20;;;;;;;4.63;3.50;;;;;;;9.08;73.05;101431.94;10627735;27;20118;-75
2022/05/30 22:52:21;;;;;;;7.50;1.90;;;;;;;9.01;73.57;101431.81;10628201;27;20035;-75
2022/05/30 22:57:21;;;;;;;3.90;2.95;;;;;;;8.96;74.05;101423.38;10627622;27;20539;-75
2022/05/30 23:02:23;;;;;;;10.45;3.42;;;;;;;8.93;74.21;101423.72;10610235;27;20043;-76
2022/05/30 23:07:24;;;;;;;7.93;3.42;;;;;;;8.83;73.95;101425.78;10627545;27;20418;-76
2022/05/30 23:12:24;;;;;;;6.63;2.75;;;;;;;8.73;74.15;101419.72;10628648;27;20035;-75
2022/05/30 23:17:25;;;;;;;10.32;3.53;;;;;;;8.66;74.69;101413.34;10634759;27;20036;-75
2022/05/30 23:22:25;;;;;;;5.28;3.47;;;;;;;8.65;75.02;101408.94;10634774;27;20031;-75
2022/05/30 23:27:25;;;;;;;5.30;3.83;;;;;;;8.67;75.38;101412.31;10597530;27;20110;-75
2022/05/30 23:32:26;;;;;;;14.55;3.30;;;;;;;8.65;75.41;101404.41;10621448;27;20110;-75
2022/05/30 23:37:26;;;;;;;3.13;2.83;;;;;;;8.64;75.59;101404.56;10604149;27;20103;-75
2022/05/30 23:47:47;;;;;;;7.68;2.30;;;;;;;8.61;76.69;101394.94;10626228;27;20410;-75
2022/05/30 23:52:48;;;;;;;10.73;3.75;;;;;;;8.61;77.70;101398.50;10626188;27;20035;-75
2022/05/30 23:57:48;;;;;;;6.78;2.50;;;;;;;8.59;77.04;101391.59;10607054;27;20081;-75
